Terminal Aerodrome Forecast
Issued by NWS Wichita, KS

Home | Current Version | Previous Version | Graphics & Text | Print | Product List | Glossary On
Versions: 1 2 3 4 5 6 7 8 9 10 11 12 13 14 15 16 17 18
718
FTUS43 KICT 011720
TAFICT
TAF
KICT 011720Z 0118/0218 34015G22KT P6SM OVC020
     FM011900 34013G22KT P6SM SCT025 BKN035
     FM020000 35009KT P6SM SCT035 BKN120
     FM020600 36007KT P6SM VCSH SCT015 OVC020
     FM021600 34009KT P6SM SCT040=

USA.gov is the U.S. government's official web portal to all federal, state and local government web resources and services.